createdAt,value
2023-06-19T00:00:24.540Z,26.59
2023-06-19T00:02:52.343Z,26.68
2023-06-19T00:05:20.358Z,26.63
2023-06-19T00:07:47.942Z,26.67
2023-06-19T00:10:15.180Z,26.65
2023-06-19T00:12:44.675Z,26.46
2023-06-19T00:15:12.557Z,26.49
2023-06-19T00:20:27.849Z,26.21
2023-06-19T00:22:55.092Z,26.33
2023-06-19T00:25:22.376Z,26.33
2023-06-19T00:27:49.598Z,26.32
2023-06-19T00:30:17.056Z,26.28
2023-06-19T00:32:47.919Z,26.17
2023-06-19T00:35:17.152Z,26.21
2023-06-19T00:37:47.547Z,26.24
2023-06-19T00:40:33.843Z,26.01
2023-06-19T00:43:01.629Z,25.68
2023-06-19T00:45:29.303Z,25.61
2023-06-19T00:48:00.548Z,25.60
2023-06-19T00:50:32.865Z,25.82
2023-06-19T00:53:04.527Z,25.99
2023-06-19T00:55:33.534Z,26.05
2023-06-19T00:58:04.321Z,26.16
2023-06-19T01:00:31.649Z,26.17
2023-06-19T01:02:59.969Z,26.14
2023-06-19T01:05:29.941Z,26.06
2023-06-19T01:08:31.289Z,26.02
2023-06-19T01:11:08.999Z,26.06
2023-06-19T01:14:02.359Z,26.03
2023-06-19T01:16:31.393Z,26.14
2023-06-19T01:19:00.048Z,26.09
2023-06-19T01:21:27.324Z,26.18
2023-06-19T01:23:56.954Z,26.20
2023-06-19T01:26:28.795Z,26.25
2023-06-19T01:28:58.427Z,26.03
2023-06-19T01:31:35.412Z,25.91
2023-06-19T01:34:07.842Z,25.82
2023-06-19T01:36:36.977Z,25.93
2023-06-19T01:39:04.692Z,25.91
2023-06-19T01:41:34.670Z,25.92
2023-06-19T01:44:02.112Z,25.93
2023-06-19T01:46:29.425Z,25.91
2023-06-19T01:48:57.385Z,25.95
2023-06-19T01:51:24.790Z,25.92
2023-06-19T01:53:52.485Z,25.93
2023-06-19T01:56:19.961Z,25.80
2023-06-19T01:58:47.165Z,25.84
2023-06-19T02:01:14.693Z,25.85
2023-06-19T02:03:42.029Z,25.88
2023-06-19T02:06:10.464Z,25.81
2023-06-19T02:08:37.724Z,25.71
2023-06-19T02:11:05.001Z,25.69
2023-06-19T02:13:34.145Z,25.77
2023-06-19T02:16:01.538Z,25.68
2023-06-19T02:18:29.257Z,25.80
2023-06-19T02:20:56.431Z,25.77
2023-06-19T02:23:23.693Z,25.78
2023-06-19T02:25:51.164Z,25.67
2023-06-19T02:28:18.610Z,24.97
2023-06-19T02:30:45.800Z,25.22
2023-06-19T02:33:14.397Z,25.40
2023-06-19T02:35:42.652Z,25.45
2023-06-19T02:38:09.884Z,25.55
2023-06-19T02:40:37.090Z,25.54
2023-06-19T02:43:04.213Z,25.32
2023-06-19T02:45:31.410Z,25.03
2023-06-19T02:47:59.506Z,25.15
2023-06-19T02:50:27.361Z,24.20
2023-06-19T02:52:54.588Z,24.21
2023-06-19T02:55:21.746Z,24.59
2023-06-19T02:57:48.903Z,24.15
2023-06-19T03:00:16.728Z,24.04
2023-06-19T03:02:45.346Z,23.81
2023-06-19T03:05:16.075Z,23.82
2023-06-19T03:07:43.427Z,23.81
2023-06-19T03:10:11.152Z,23.96
2023-06-19T03:12:38.355Z,24.04
2023-06-19T03:15:07.036Z,23.84
2023-06-19T03:17:44.177Z,24.10
2023-06-19T03:20:22.011Z,24.11
2023-06-19T03:22:55.316Z,24.19
2023-06-19T03:25:24.739Z,24.29
2023-06-19T03:27:52.411Z,24.27
2023-06-19T03:30:19.897Z,24.27
2023-06-19T03:32:50.677Z,24.34
2023-06-19T03:35:39.085Z,24.44
2023-06-19T03:38:07.419Z,24.43
2023-06-19T03:40:35.716Z,24.31
2023-06-19T03:43:08.873Z,24.38
2023-06-19T03:45:37.182Z,23.91
2023-06-19T03:48:07.643Z,24.26
2023-06-19T03:50:35.508Z,24.50
2023-06-19T03:53:03.177Z,24.64
2023-06-19T03:55:30.343Z,24.27
2023-06-19T03:57:57.474Z,24.32
2023-06-19T04:00:25.145Z,24.39
2023-06-19T04:02:53.037Z,24.47
2023-06-19T04:05:23.590Z,24.53
2023-06-19T04:07:50.796Z,24.58
2023-06-19T04:10:18.187Z,24.67
2023-06-19T04:12:49.213Z,24.69
2023-06-19T04:15:16.519Z,24.56
2023-06-19T04:17:43.832Z,24.29
2023-06-19T04:20:12.506Z,24.47
2023-06-19T04:22:41.733Z,24.56
2023-06-19T04:25:12.067Z,24.60
2023-06-19T04:27:39.955Z,24.71
2023-06-19T04:30:08.186Z,24.49
2023-06-19T04:32:36.522Z,24.34
2023-06-19T04:35:04.568Z,24.42
2023-06-19T04:37:32.416Z,24.51
2023-06-19T04:40:00.044Z,24.52
2023-06-19T04:42:28.526Z,24.67
2023-06-19T04:44:57.283Z,24.71
2023-06-19T04:47:30.562Z,24.25
2023-06-19T04:50:04.654Z,24.26
2023-06-19T04:52:34.270Z,24.53
2023-06-19T04:55:01.709Z,24.65
2023-06-19T04:57:28.985Z,24.86
2023-06-19T04:59:56.458Z,24.95
2023-06-19T05:02:25.018Z,24.95
2023-06-19T05:04:52.402Z,25.14
2023-06-19T05:07:19.756Z,24.84
2023-06-19T05:09:47.488Z,24.90
2023-06-19T05:12:15.363Z,24.68
2023-06-19T05:14:43.196Z,24.82
2023-06-19T05:17:10.792Z,25.15
2023-06-19T05:19:38.117Z,24.75
2023-06-19T05:22:05.957Z,24.56
2023-06-19T05:24:36.728Z,25.15
2023-06-19T05:27:04.563Z,25.27
2023-06-19T05:29:33.263Z,25.55
2023-06-19T05:32:01.370Z,25.86
2023-06-19T05:34:29.036Z,26.12
2023-06-19T05:36:56.883Z,26.22
2023-06-19T05:39:24.832Z,26.13
2023-06-19T05:41:52.162Z,26.17
2023-06-19T05:44:20.327Z,25.84
2023-06-19T05:46:48.344Z,25.58
2023-06-19T05:49:16.091Z,25.88
2023-06-19T05:51:44.451Z,25.84
2023-06-19T05:54:11.772Z,25.94
2023-06-19T05:56:39.109Z,25.92
2023-06-19T05:59:06.443Z,26.21
2023-06-19T06:01:33.650Z,25.81
2023-06-19T06:04:02.651Z,25.69
2023-06-19T06:06:29.922Z,25.53
2023-06-19T06:08:57.459Z,25.00
2023-06-19T06:11:24.855Z,24.87
2023-06-19T06:13:52.510Z,25.34
2023-06-19T06:16:20.635Z,25.14
2023-06-19T06:18:48.231Z,25.48
2023-06-19T06:21:15.508Z,25.60
2023-06-19T06:23:43.027Z,25.09
2023-06-19T06:26:10.703Z,25.05
2023-06-19T06:28:39.781Z,25.10
2023-06-19T06:31:08.169Z,25.26
2023-06-19T06:33:35.591Z,25.21
2023-06-19T06:36:08.702Z,25.56
2023-06-19T06:38:37.032Z,25.81
2023-06-19T06:41:04.717Z,26.30
2023-06-19T06:43:32.397Z,26.76
2023-06-19T06:46:00.017Z,26.89
2023-06-19T06:48:27.799Z,26.03
2023-06-19T06:51:00.211Z,26.34
2023-06-19T06:53:32.983Z,26.83
2023-06-19T06:56:01.104Z,26.64
2023-06-19T06:58:28.897Z,26.98
2023-06-19T07:00:57.391Z,27.48
2023-06-19T07:03:24.853Z,27.00
2023-06-19T07:05:52.330Z,26.82
2023-06-19T07:08:20.125Z,27.23
2023-06-19T07:10:47.902Z,27.46
2023-06-19T07:13:15.546Z,27.57
2023-06-19T07:15:43.293Z,27.81
2023-06-19T07:18:24.406Z,28.18
2023-06-19T07:20:53.218Z,28.45
2023-06-19T07:23:23.404Z,28.33
2023-06-19T07:25:50.631Z,28.54
2023-06-19T07:28:17.921Z,28.15
2023-06-19T07:30:46.233Z,27.80
2023-06-19T07:33:13.408Z,27.56
2023-06-19T07:35:40.617Z,27.37
2023-06-19T07:38:07.832Z,27.36
2023-06-19T07:40:35.271Z,27.74
2023-06-19T07:43:03.524Z,28.06
2023-06-19T07:45:30.690Z,28.40
2023-06-19T07:47:59.111Z,28.69
2023-06-19T07:50:28.078Z,28.42
2023-06-19T07:52:56.252Z,27.85
2023-06-19T07:55:23.837Z,27.82
2023-06-19T07:57:51.172Z,27.60
2023-06-19T08:00:18.995Z,28.27
2023-06-19T08:02:46.309Z,28.11
2023-06-19T08:05:13.900Z,28.09
2023-06-19T08:07:42.140Z,27.95
2023-06-19T08:10:27.396Z,27.68
2023-06-19T08:12:55.349Z,27.91
2023-06-19T08:15:22.944Z,27.69
2023-06-19T08:17:50.586Z,27.86
2023-06-19T08:20:17.926Z,27.92
2023-06-19T08:22:45.068Z,28.18
2023-06-19T08:25:13.175Z,28.01
2023-06-19T08:27:40.381Z,28.11
2023-06-19T08:30:08.579Z,28.26
2023-06-19T08:32:36.131Z,28.24
2023-06-19T08:35:04.242Z,28.34
2023-06-19T08:37:31.867Z,28.31
2023-06-19T08:40:00.956Z,28.79
2023-06-19T08:42:29.160Z,29.07
2023-06-19T08:44:56.457Z,29.60
2023-06-19T08:47:33.058Z,29.65
2023-06-19T08:50:02.644Z,28.79
2023-06-19T08:52:31.465Z,28.76
2023-06-19T08:54:58.936Z,28.46
2023-06-19T08:57:40.393Z,28.52
2023-06-19T09:00:11.389Z,28.43
2023-06-19T09:02:44.686Z,28.63
2023-06-19T09:05:18.213Z,28.43
2023-06-19T09:07:58.701Z,28.22
2023-06-19T09:10:26.537Z,28.35
2023-06-19T09:13:04.056Z,28.48
2023-06-19T09:15:36.353Z,29.10
2023-06-19T09:18:12.437Z,29.24
2023-06-19T09:20:45.432Z,29.21
2023-06-19T09:23:14.096Z,29.11
2023-06-19T09:25:58.403Z,29.32
2023-06-19T09:28:28.956Z,29.58
2023-06-19T09:31:02.854Z,29.71
2023-06-19T09:33:33.762Z,29.38
2023-06-19T09:36:06.514Z,29.72
2023-06-19T09:39:03.338Z,29.80
2023-06-19T09:41:32.406Z,29.72
2023-06-19T09:44:01.229Z,29.69
2023-06-19T09:46:37.966Z,29.85
2023-06-19T09:49:08.288Z,30.07
2023-06-19T09:51:43.062Z,30.77
2023-06-19T09:54:11.744Z,30.29
2023-06-19T09:56:40.412Z,30.03
2023-06-19T09:59:10.692Z,30.42
2023-06-19T10:01:38.591Z,30.78
2023-06-19T10:04:12.322Z,31.25
2023-06-19T10:06:50.612Z,30.85
2023-06-19T10:09:20.939Z,30.84
2023-06-19T10:11:52.866Z,30.87
2023-06-19T10:14:25.775Z,31.21
2023-06-19T10:16:53.147Z,31.36
2023-06-19T10:19:23.554Z,30.86
2023-06-19T10:21:55.174Z,31.63
2023-06-19T10:24:26.480Z,31.76
2023-06-19T10:27:03.054Z,31.22
2023-06-19T10:29:43.605Z,31.64
2023-06-19T10:32:20.943Z,31.73
2023-06-19T10:34:52.297Z,31.63
2023-06-19T10:37:33.305Z,31.25
2023-06-19T10:40:01.459Z,31.34
2023-06-19T10:42:29.742Z,31.68
2023-06-19T10:45:11.552Z,32.54
2023-06-19T10:47:41.383Z,33.21
2023-06-19T10:50:15.584Z,33.52
2023-06-19T10:52:49.375Z,33.76
2023-06-19T10:55:16.841Z,33.57
2023-06-19T10:57:48.220Z,33.64
2023-06-19T11:00:32.082Z,34.13
2023-06-19T11:03:00.471Z,34.53
2023-06-19T11:05:29.717Z,35.01
2023-06-19T11:08:00.622Z,35.34
2023-06-19T11:10:30.653Z,35.68
2023-06-19T11:13:00.192Z,35.74
2023-06-19T11:15:35.876Z,35.66
2023-06-19T11:18:04.385Z,35.84
2023-06-19T11:20:31.661Z,35.87
2023-06-19T11:23:02.059Z,35.72
2023-06-19T11:25:41.724Z,35.78
2023-06-19T11:28:24.769Z,35.95
2023-06-19T11:31:04.560Z,34.68
2023-06-19T11:33:31.969Z,33.61
2023-06-19T11:36:04.102Z,34.14
2023-06-19T11:38:32.245Z,34.06
2023-06-19T11:40:59.480Z,34.96
2023-06-19T11:43:33.603Z,35.77
2023-06-19T11:46:09.049Z,36.22
2023-06-19T11:48:40.464Z,35.53
2023-06-19T11:51:09.203Z,34.47
2023-06-19T11:53:37.241Z,35.05
2023-06-19T11:56:05.849Z,36.16
2023-06-19T11:58:33.108Z,37.32
2023-06-19T12:01:00.370Z,38.49
2023-06-19T12:03:28.337Z,39.29
2023-06-19T12:05:55.840Z,39.90
2023-06-19T12:08:23.405Z,39.88
2023-06-19T12:10:50.954Z,40.33
2023-06-19T12:13:18.530Z,40.36
2023-06-19T12:15:46.017Z,39.97
2023-06-19T12:18:15.116Z,40.82
2023-06-19T12:20:42.675Z,41.43
2023-06-19T12:23:10.197Z,42.07
2023-06-19T12:25:37.392Z,42.63
2023-06-19T12:28:06.645Z,42.90
2023-06-19T12:30:34.029Z,43.10
2023-06-19T12:33:02.089Z,42.56
2023-06-19T12:35:29.315Z,42.51
2023-06-19T12:37:57.067Z,42.19
2023-06-19T12:40:24.892Z,42.14
2023-06-19T12:42:53.144Z,43.17
2023-06-19T12:45:20.995Z,43.45
2023-06-19T12:47:49.302Z,44.03
2023-06-19T12:50:17.182Z,44.37
2023-06-19T12:52:45.255Z,43.89
2023-06-19T12:55:13.054Z,43.46
2023-06-19T12:57:41.680Z,42.79
2023-06-19T13:00:14.086Z,43.99
2023-06-19T13:02:44.102Z,45.32
2023-06-19T13:05:11.662Z,46.79
2023-06-19T13:07:39.534Z,47.26
2023-06-19T13:10:07.613Z,48.15
2023-06-19T13:12:34.989Z,46.83
2023-06-19T13:15:03.031Z,47.79
2023-06-19T13:17:31.072Z,46.29
2023-06-19T13:19:58.588Z,47.99
2023-06-19T13:22:26.399Z,49.80
2023-06-19T13:24:53.680Z,48.60
2023-06-19T13:27:20.898Z,46.34
2023-06-19T13:29:48.180Z,44.78
2023-06-19T13:32:15.333Z,43.86
2023-06-19T13:34:43.259Z,43.13
2023-06-19T13:37:14.357Z,42.66
2023-06-19T13:39:42.356Z,43.40
2023-06-19T13:42:14.222Z,45.26
2023-06-19T13:44:41.593Z,46.05
2023-06-19T13:47:09.222Z,46.61
2023-06-19T13:49:36.627Z,47.16
2023-06-19T13:52:04.241Z,47.60
2023-06-19T13:54:31.408Z,47.14
2023-06-19T13:56:59.612Z,46.19
2023-06-19T13:59:27.028Z,43.84
2023-06-19T14:01:54.896Z,43.39
2023-06-19T14:04:22.092Z,42.99
2023-06-19T14:06:49.459Z,41.47
2023-06-19T14:09:17.656Z,41.13
2023-06-19T14:11:45.378Z,41.29
2023-06-19T14:14:13.061Z,42.79
2023-06-19T14:16:40.911Z,44.47
2023-06-19T14:19:08.246Z,45.69
2023-06-19T14:21:36.095Z,44.08
2023-06-19T14:24:04.058Z,43.89
2023-06-19T14:26:31.549Z,44.28
2023-06-19T14:28:59.915Z,44.46
2023-06-19T14:31:27.067Z,43.87
2023-06-19T14:33:55.907Z,44.72
2023-06-19T14:36:23.429Z,44.97
2023-06-19T14:38:51.469Z,46.28
2023-06-19T14:41:19.378Z,47.02
2023-06-19T14:43:46.861Z,46.11
2023-06-19T14:46:23.005Z,45.92
2023-06-19T14:49:02.204Z,46.19
2023-06-19T14:51:30.127Z,45.92
2023-06-19T14:53:57.645Z,45.54
2023-06-19T14:56:25.498Z,44.34
2023-06-19T14:58:52.732Z,44.72
2023-06-19T15:01:20.325Z,45.28
2023-06-19T15:03:47.618Z,45.75
2023-06-19T15:06:15.112Z,45.92
2023-06-19T15:08:42.404Z,45.93
2023-06-19T15:11:09.604Z,46.00
2023-06-19T15:13:39.666Z,46.10
2023-06-19T15:16:08.951Z,44.40
2023-06-19T15:18:36.512Z,43.46
2023-06-19T15:21:07.050Z,42.11
2023-06-19T15:23:35.346Z,42.11
2023-06-19T15:26:02.620Z,42.68
2023-06-19T15:28:29.864Z,43.50
2023-06-19T15:30:57.118Z,44.24
2023-06-19T15:33:24.343Z,45.20
2023-06-19T15:35:52.511Z,45.00
2023-06-19T15:38:20.420Z,45.01
2023-06-19T15:40:48.225Z,45.79
2023-06-19T15:43:15.592Z,46.18
2023-06-19T15:45:42.918Z,45.24
2023-06-19T15:48:10.636Z,44.20
2023-06-19T15:50:38.658Z,42.34
2023-06-19T15:53:05.857Z,41.63
2023-06-19T15:55:33.541Z,40.90
2023-06-19T15:58:00.704Z,39.51
2023-06-19T16:00:28.125Z,39.36
2023-06-19T16:02:55.516Z,38.39
2023-06-19T16:05:23.526Z,37.53
2023-06-19T16:07:51.030Z,37.12
2023-06-19T16:10:19.120Z,37.54
2023-06-19T16:12:46.861Z,37.60
2023-06-19T16:15:14.469Z,37.72
2023-06-19T16:17:42.223Z,37.48
2023-06-19T16:20:11.328Z,36.95
2023-06-19T16:22:38.999Z,36.72
2023-06-19T16:25:07.128Z,36.65
2023-06-19T16:27:34.264Z,35.98
2023-06-19T16:30:03.531Z,34.63
2023-06-19T16:32:31.985Z,34.98
2023-06-19T16:34:59.337Z,34.40
2023-06-19T16:37:27.706Z,34.27
2023-06-19T16:39:55.882Z,34.12
2023-06-19T16:42:25.787Z,34.38
2023-06-19T16:44:54.572Z,33.94
2023-06-19T16:47:21.928Z,33.28
2023-06-19T16:49:49.814Z,32.56
2023-06-19T16:52:18.583Z,32.39
2023-06-19T16:54:46.203Z,32.47
2023-06-19T16:57:13.417Z,32.45
2023-06-19T16:59:40.640Z,31.35
2023-06-19T17:02:07.965Z,30.52
2023-06-19T17:04:35.233Z,31.11
2023-06-19T17:07:02.674Z,31.43
2023-06-19T17:09:29.928Z,31.82
2023-06-19T17:11:57.196Z,32.01
2023-06-19T17:14:25.080Z,32.39
2023-06-19T17:16:55.908Z,32.55
2023-06-19T17:19:23.630Z,32.81
2023-06-19T17:21:50.826Z,32.60
2023-06-19T17:24:19.064Z,32.60
2023-06-19T17:26:46.443Z,33.03
2023-06-19T17:29:13.841Z,33.38
2023-06-19T17:31:41.378Z,33.53
2023-06-19T17:34:08.596Z,33.77
2023-06-19T17:36:35.812Z,33.43
2023-06-19T17:39:04.233Z,33.06
2023-06-19T17:41:31.702Z,33.33
2023-06-19T17:44:04.785Z,33.22
2023-06-19T17:46:32.481Z,33.10
2023-06-19T17:49:00.164Z,32.99
2023-06-19T17:51:27.665Z,32.93
2023-06-19T17:53:55.273Z,32.88
2023-06-19T17:56:22.909Z,32.82
2023-06-19T17:58:50.388Z,32.78
2023-06-19T18:01:17.873Z,32.70
2023-06-19T18:03:45.171Z,32.66
2023-06-19T18:06:12.386Z,32.60
2023-06-19T18:08:39.715Z,32.54
2023-06-19T18:11:07.738Z,32.57
2023-06-19T18:13:35.774Z,32.58
2023-06-19T18:16:12.052Z,32.68
2023-06-19T18:18:40.818Z,32.69
2023-06-19T18:21:08.027Z,32.52
2023-06-19T18:23:35.375Z,32.45
2023-06-19T18:26:02.624Z,32.34
2023-06-19T18:28:29.841Z,32.23
2023-06-19T18:30:57.415Z,32.19
2023-06-19T18:33:24.880Z,31.91
2023-06-19T18:35:52.051Z,31.64
2023-06-19T18:38:19.751Z,31.28
2023-06-19T18:40:48.951Z,30.76
2023-06-19T18:43:16.641Z,30.98
2023-06-19T18:45:44.380Z,30.89
2023-06-19T18:48:12.276Z,30.62
2023-06-19T18:50:39.939Z,30.70
2023-06-19T18:53:08.240Z,30.66
2023-06-19T18:55:37.287Z,30.70
2023-06-19T18:58:07.025Z,30.51
2023-06-19T19:00:35.489Z,30.48
2023-06-19T19:03:10.276Z,30.46
2023-06-19T19:05:40.120Z,30.21
2023-06-19T19:08:07.992Z,30.21
2023-06-19T19:10:35.738Z,30.10
2023-06-19T19:13:03.715Z,29.83
2023-06-19T19:15:31.588Z,29.78
2023-06-19T19:18:00.556Z,29.77
2023-06-19T19:20:29.110Z,29.65
2023-06-19T19:22:56.479Z,29.56
2023-06-19T19:25:23.677Z,29.58
2023-06-19T19:27:51.351Z,29.53
2023-06-19T19:30:19.500Z,29.50
2023-06-19T19:32:47.323Z,29.38
2023-06-19T19:35:14.615Z,29.32
2023-06-19T19:37:42.439Z,29.17
2023-06-19T19:40:11.553Z,29.09
2023-06-19T19:42:39.312Z,29.01
2023-06-19T19:45:07.921Z,28.89
2023-06-19T19:47:36.269Z,28.83
2023-06-19T19:50:04.026Z,28.67
2023-06-19T19:52:31.920Z,28.69
2023-06-19T19:55:00.049Z,28.63
2023-06-19T19:57:27.550Z,28.55
2023-06-19T19:59:55.251Z,28.38
2023-06-19T20:02:22.998Z,28.29
2023-06-19T20:04:50.642Z,28.26
2023-06-19T20:07:18.105Z,28.21
2023-06-19T20:09:45.401Z,28.16
2023-06-19T20:12:21.457Z,28.13
2023-06-19T20:14:50.965Z,27.86
2023-06-19T20:17:18.396Z,27.78
2023-06-19T20:19:45.634Z,27.57
2023-06-19T20:22:13.547Z,27.48
2023-06-19T20:24:41.092Z,27.29
2023-06-19T20:27:08.465Z,27.14
2023-06-19T20:29:36.795Z,26.89
2023-06-19T20:32:05.556Z,26.87
2023-06-19T20:40:23.594Z,27.03
2023-06-19T20:47:41.843Z,26.96
2023-06-19T20:50:09.380Z,26.81
2023-06-19T20:52:37.072Z,26.65
2023-06-19T20:55:07.569Z,26.66
2023-06-19T20:57:34.949Z,26.54
2023-06-19T21:00:03.544Z,26.50
2023-06-19T21:02:33.716Z,26.48
2023-06-19T21:05:01.223Z,26.35
2023-06-19T21:07:33.015Z,26.29
2023-06-19T21:10:00.561Z,26.21
2023-06-19T21:12:27.724Z,26.27
2023-06-19T21:14:56.039Z,26.26
2023-06-19T21:17:23.959Z,26.33
2023-06-19T21:19:51.319Z,26.24
2023-06-19T21:22:18.590Z,26.06
2023-06-19T21:24:46.069Z,25.88
2023-06-19T21:27:13.441Z,25.74
2023-06-19T21:29:41.029Z,25.68
2023-06-19T21:32:08.946Z,25.33
2023-06-19T21:34:36.166Z,25.33
2023-06-19T21:37:03.404Z,25.23
2023-06-19T21:39:31.087Z,24.96
2023-06-19T21:41:58.420Z,24.75
2023-06-19T21:44:25.625Z,24.88
2023-06-19T21:46:53.007Z,24.97
2023-06-19T21:49:20.172Z,25.11
2023-06-19T21:51:47.402Z,25.19
2023-06-19T21:54:14.826Z,25.21
2023-06-19T21:56:41.961Z,25.04
2023-06-19T21:59:09.110Z,25.13
2023-06-19T22:01:37.279Z,24.87
2023-06-19T22:04:07.229Z,24.73
2023-06-19T22:06:35.433Z,24.86
2023-06-19T22:09:02.818Z,24.94
2023-06-19T22:11:30.417Z,24.94
2023-06-19T22:13:57.620Z,24.99
2023-06-19T22:16:25.022Z,24.96
2023-06-19T22:18:52.328Z,24.86
2023-06-19T22:21:19.660Z,24.67
2023-06-19T22:23:46.849Z,24.42
2023-06-19T22:26:15.078Z,24.59
2023-06-19T22:28:42.384Z,24.75
2023-06-19T22:31:09.609Z,24.71
2023-06-19T22:33:37.273Z,24.58
2023-06-19T22:36:04.846Z,24.65
2023-06-19T22:38:32.051Z,24.42
2023-06-19T22:40:59.423Z,24.15
2023-06-19T22:43:26.572Z,24.19
2023-06-19T22:45:53.852Z,24.35
2023-06-19T22:48:21.150Z,24.22
2023-06-19T22:50:48.338Z,24.22
2023-06-19T22:53:15.516Z,24.13
2023-06-19T22:55:43.487Z,24.06
2023-06-19T22:58:10.815Z,24.10
2023-06-19T23:00:38.800Z,24.18
2023-06-19T23:03:07.048Z,24.19
2023-06-19T23:05:34.544Z,24.20
2023-06-19T23:08:03.052Z,24.18
2023-06-19T23:10:30.704Z,24.22
2023-06-19T23:12:57.899Z,24.06
2023-06-19T23:15:25.810Z,24.07
2023-06-19T23:17:54.253Z,23.93
2023-06-19T23:20:22.080Z,24.09
2023-06-19T23:22:49.387Z,24.01
2023-06-19T23:25:16.857Z,23.99
2023-06-19T23:27:44.469Z,23.99
2023-06-19T23:30:12.282Z,23.92
2023-06-19T23:32:39.494Z,24.02
2023-06-19T23:35:07.126Z,23.98
2023-06-19T23:37:34.936Z,23.91
2023-06-19T23:40:02.823Z,23.91
2023-06-19T23:42:30.591Z,24.01
2023-06-19T23:44:58.084Z,23.93
2023-06-19T23:47:25.217Z,24.04
2023-06-19T23:49:53.295Z,24.06
2023-06-19T23:52:29.681Z,24.03
2023-06-19T23:55:02.011Z,24.00
2023-06-19T23:57:29.998Z,24.07
2023-06-19T23:59:58.124Z,24.04
